Date,TemperatureHighF,TemperatureAvgF,TemperatureLowF,DewpointHighF,DewpointAvgF,DewpointLowF,HumidityHigh,HumidityAvg,HumidityLow,PressureMaxIn,PressureMinIn,WindSpeedMaxMPH,WindSpeedAvgMPH,GustSpeedMaxMPH,PrecipitationSumIn
2013-4-1,36.6,30.2,27.4,29.0,16.9,12.0,81,59,48,30.14,29.78,14,3,19,0.01
2013-4-2,38.4,30.8,20.9,20.0,16.0,14.0,81,56,39,30.30,30.13,13,3,22,0.00
2013-4-3,45.2,32.5,22.0,20.0,17.3,14.0,80,56,30,30.48,30.29,10,1,13,0.00
2013-4-4,52.3,39.6,24.7,28.0,21.3,17.0,76,51,31,30.37,29.97,12,2,19,0.00
2013-4-5,49.8,41.2,31.6,27.0,22.9,18.0,70,50,30,30.21,29.97,8,2,13,0.00
2013-4-6,58.3,46.6,35.3,42.0,26.2,16.0,64,46,36,30.20,29.68,11,3,18,0.01
2013-4-7,54.4,45.0,35.5,47.0,35.6,29.0,84,70,57,30.03,29.57,19,4,24,0.06
2013-4-8,51.5,41.1,35.7,49.0,37.0,29.0,93,85,77,30.02,29.66,13,3,29,0.40
2013-4-9,46.8,42.4,39.5,45.0,40.5,37.0,94,93,91,30.06,29.88,7,2,26,0.81
2013-4-10,41.3,39.4,37.0,39.0,36.8,32.0,93,90,82,30.02,29.86,14,3,18,0.33
2013-4-11,37.8,35.9,34.6,34.0,33.0,31.0,91,89,76,30.00,29.65,21,5,26,1.13
2013-4-12,41.0,36.8,33.2,36.0,33.5,31.0,93,88,74,29.78,29.58,13,3,20,0.16
2013-4-13,40.0,36.5,34.5,35.0,30.0,25.0,92,78,58,30.00,29.78,13,4,20,0.05
2013-4-14,49.6,38.6,30.1,41.0,32.8,26.0,91,80,68,30.11,29.85,13,2,19,0.05
2013-4-15,64.9,54.7,43.6,55.0,47.4,36.0,91,77,66,29.95,29.81,12,3,21,0.48
2013-4-16,51.8,46.7,41.1,45.0,36.8,31.0,92,71,47,30.26,29.91,10,2,16,0.26
2013-4-17,51.5,45.3,40.6,43.0,36.2,31.0,92,72,51,30.34,29.96,10,3,25,1.21
2013-4-18,62.4,54.4,44.0,60.0,52.0,42.0,95,91,82,29.99,29.40,12,3,23,2.36
2013-4-19,61.7,38.9,32.0,57.0,33.2,27.0,89,80,66,29.78,29.42,22,7,38,0.41
2013-4-20,38.6,32.9,27.9,27.0,20.4,17.0,82,61,46,30.48,29.78,13,3,20,0.00
2013-4-21,53.0,39.0,23.8,31.0,24.1,19.0,84,58,37,30.61,30.41,9,2,14,0.00
2013-4-22,66.3,50.9,34.6,34.0,31.1,28.0,78,50,29,30.42,30.13,5,1,12,0.00
2013-4-23,64.8,51.1,41.1,51.0,41.6,33.0,90,71,49,30.13,29.84,7,1,15,0.42
2013-4-24,45.8,38.9,33.7,38.0,30.0,25.0,91,73,45,30.11,29.87,13,2,19,0.09
2013-4-25,49.9,42.0,35.3,37.0,31.3,27.0,90,67,45,30.34,30.04,11,3,22,0.19
2013-4-26,65.3,50.2,33.5,40.0,34.2,28.0,82,57,37,30.43,30.27,11,2,19,0.00
2013-4-27,71.8,59.4,44.4,45.0,39.9,36.0,76,51,29,30.31,30.06,7,1,14,0.00
2013-4-28,64.3,58.2,53.9,53.0,46.0,37.0,85,65,52,30.05,29.81,7,2,15,0.00
2013-4-29,72.2,61.1,47.1,55.0,50.8,44.0,91,71,49,29.93,29.82,7,1,14,0.00
2013-4-30,79.9,66.7,56.3,62.0,56.6,52.0,90,71,53,29.95,29.85,11,2,18,0.43